Rusk, TX

7:05 AM CST on February 13, 2016 (GMT -0600)
Cherokee County | | Change Station
CLOSE
Current Station
Airport
Location: Jacksonville,
Elevation: 676 ft
Nearby Weather Stations

Elev 676 ft 31.87 °N, 95.22 °W | Updated 10 minutes ago

Clear
Clear
44 °F
Feels Like 40 °F
N
6
Wind Variable Wind from East

Today
High -- | Low -- °F
--% Chance of Precip.
Yesterday
High -- | Low -- °F
Precip. -- in
Pressure 30.41 in
Visibility 10.0 miles
Clouds Clear
Windchill 40 °F
Dew Point 35 °F
Humidity 72%
Rainfall 0.00 in
Snow Depth Not available.
7:04 AM 6:05 PM
Waxing Crescent, 30% visible
METAR KJSO 131255Z AUTO 10005KT 10SM CLR 06/01 A3041 RMK AO2 T00650018
Pressure 30.41 in
Visibility 10.0 miles
Clouds Clear
Windchill 40 °F
Dew Point 35 °F
Humidity 72%
Rainfall 0.00 in
Snow Depth Not available.
7:04 AM 6:05 PM
Waxing Crescent, 30% visible
METAR KJSO 131255Z AUTO 10005KT 10SM CLR 06/01 A3041 RMK AO2 T00650018

10-Day Weather Forecast

Almanac

Astronomy

Feb. 13, 2016 Rise Set
Actual Time
Civil Twilight
Nautical Twilight
Astronomical Twilight
Moon
Length of Visible Light
Length of Day
Tomorrow will be .
, % of the Moon is Illuminated

Today's Extremes

State Highs State Lows

Community

WunderPhotos

Upload Photos

1,892,545 photos uploaded!

WunderBlog® & News

Nearby

Air Quality

  Air Quality AQ Index Pollutant
Not available.

Snow Depth

Station Depth Elevation

Earthquake Activity

City Distance Mag. Time & Date
Minimum magnitude displayed is 2.5.

Coastal Water Temperatures

Place Temperature

Stations

Nearby Weather Stations

Station Location Temp. Windchill Dew Point Humidity Wind Precip. Elev Updated Type
                   

Watches & Warnings

There are currently no watches in effect.